Chris — V7XF8 — position and weather

sailwx.info

Track history (hours):
 
Tides and Currents Weather Stations Pressure Air Temp Water Temp Dewpoint Dewpoint Depression Visibility Wind Speed Wind Dir Waves Ship Positions

Chris

Last reported at 2015-Jan-15 22:29 UTC. Time now 2015-Jan-29 16:23 UTC.
Position N 48°32' W 126°30'.
Warning: this ship's position is 13 days out of date.

Length 218 m; draft 12.1 m.

Type: Ship. MMSI: 538004472.

Date/timePositionNaut miles runAvg speedWind from/ knotsBaromVisibWave heightAir tempDewpointWater temp
2015-Jan-15 22:29N 48°32' W 126°30'8 8.8
2015-Jan-15 21:32N 48°31' W 126°17'9 8.9
2015-Jan-15 20:33N 48°31' W 126°04'9 8.9
2015-Jan-15 19:33N 48°31' W 125°51'9 8.6
2015-Jan-15 18:33N 48°31' W 125°38'9 8.8
2015-Jan-15 17:33N 48°31' W 125°25'9 9.5
2015-Jan-15 16:33N 48°31' W 125°10'1010.1
2015-Jan-15 15:34N 48°31' W 124°55'1010.0
2015-Jan-15 14:34N 48°30' W 124°40'1111.2
2015-Jan-15 13:33N 48°25' W 124°24'1211.7
2015-Jan-15 12:33N 48°21' W 124°08'1212.2
2015-Jan-15 11:33N 48°17' W 123°51'1211.6
2015-Jan-15 10:33N 48°15' W 123°34'10 9.7
2015-Jan-15 09:33N 48°22' W 123°24'7 7.4
2015-Jan-15 08:33N 48°24' W 123°13'1010.3
2015-Jan-15 07:33N 48°34' W 123°13'9 9.2
2015-Jan-15 06:33N 48°44' W 123°11'8 8.5
2015-Jan-15 05:33N 48°49' W 123°02'1111.2
2015-Jan-15 04:33N 48°57' W 123°13'1110.8
2015-Jan-15 03:33N 49°06' W 123°24'1111.1
2015-Jan-15 02:33N 49°17' W 123°20'9 9.5
2015-Jan-15 01:33N 49°18' W 123°06'1 1.0
2015-Jan-15 00:31N 49°18' W 123°04'0 0.0
2015-Jan-14 23:31N 49°18' W 123°04'0 0.0
2015-Jan-14 22:31N 49°18' W 123°04'0 0.0
2015-Jan-14 21:31N 49°18' W 123°04'0 0.0
2015-Jan-14 20:31N 49°18' W 123°04'0 0.0
2015-Jan-14 19:31N 49°18' W 123°04'0 0.0
2015-Jan-14 18:31N 49°18' W 123°04'0 0.0
2015-Jan-14 17:31N 49°18' W 123°04'0 0.0
2015-Jan-14 16:31N 49°18' W 123°04'0 0.0
2015-Jan-14 15:31N 49°18' W 123°04'0 0.0
2015-Jan-14 14:31N 49°18' W 123°04'0 0.0
2015-Jan-14 13:31N 49°18' W 123°04'0 0.0
2015-Jan-14 12:31N 49°18' W 123°04'0 0.0
2015-Jan-14 11:31N 49°18' W 123°04'0 0.0
2015-Jan-14 10:31N 49°18' W 123°04'0 0.0
2015-Jan-14 09:31N 49°18' W 123°04'0 0.0
2015-Jan-14 08:33N 49°18' W 123°04'3 3.5
2015-Jan-14 07:33N 49°19' W 123°09'2 1.8
2015-Jan-14 06:32N 49°18' W 123°12'0 0.0
2015-Jan-14 05:32N 49°18' W 123°12'0 0.0
2015-Jan-14 04:29N 49°18' W 123°12'0 0.0
2015-Jan-14 03:29N 49°18' W 123°12'0 0.0
2015-Jan-14 02:32N 49°18' W 123°12'0 0.0
2015-Jan-14 01:32N 49°18' W 123°12'0 0.1
2015-Jan-14 00:32N 49°18' W 123°12'0 0.1
2015-Jan-13 23:32N 49°18' W 123°12'0 0.0
2015-Jan-13 22:33N 49°18' W 123°12'0 0.1
2015-Jan-13 21:32N 49°18' W 123°12'0 0.0
2015-Jan-13 20:32N 49°18' W 123°12'0 0.1
2015-Jan-13 19:32N 49°18' W 123°12'0 0.1
2015-Jan-13 18:32N 49°18' W 123°12'0 0.0
2015-Jan-13 17:32N 49°18' W 123°12'0 0.0
2015-Jan-13 16:32N 49°18' W 123°12'0 0.0
2015-Jan-13 15:32N 49°18' W 123°12'0 0.1
2015-Jan-13 14:32N 49°18' W 123°12'0 0.1
2015-Jan-13 13:32N 49°18' W 123°12'0 0.0
2015-Jan-13 12:32N 49°18' W 123°12'0 0.0
2015-Jan-13 11:32N 49°18' W 123°12'0 0.0
2015-Jan-13 10:32N 49°18' W 123°12'0 0.0
2015-Jan-13 09:32N 49°18' W 123°12'0 0.0
2015-Jan-13 08:32N 49°18' W 123°12'0 0.1
2015-Jan-13 07:32N 49°18' W 123°12'0 0.1
2015-Jan-13 06:32N 49°18' W 123°12'0 0.0
2015-Jan-13 05:32N 49°18' W 123°12'0 0.0
2015-Jan-13 04:32N 49°18' W 123°12'0 0.0
2015-Jan-13 03:32N 49°18' W 123°12'0 0.1
2015-Jan-13 02:32N 49°18' W 123°12'0 0.1
2015-Jan-13 01:32N 49°18' W 123°12'0 0.1
2015-Jan-13 00:32N 49°18' W 123°12'0 0.0
2015-Jan-12 23:32N 49°18' W 123°12'0 0.0
2015-Jan-12 22:32N 49°18' W 123°12'0 0.0
2015-Jan-12 21:32N 49°18' W 123°12'0 0.0
2015-Jan-12 20:32N 49°18' W 123°12'0 0.0
2015-Jan-12 19:32N 49°18' W 123°12'0 0.0
2015-Jan-12 18:29N 49°18' W 123°12'0 0.1
2015-Jan-12 17:32N 49°18' W 123°12'0 0.0
2015-Jan-12 16:32N 49°18' W 123°12'0 0.0
2015-Jan-12 15:32N 49°18' W 123°12'0 0.0
2015-Jan-12 14:33N 49°18' W 123°12'0 0.0
2015-Jan-12 13:32N 49°18' W 123°12'0 0.0
2015-Jan-12 12:32N 49°18' W 123°12'0 0.0
2015-Jan-12 11:32N 49°18' W 123°12'0 0.1
2015-Jan-12 10:32N 49°18' W 123°12'0 0.0
2015-Jan-12 09:32N 49°18' W 123°12'0 0.0
2015-Jan-12 08:32N 49°18' W 123°12'0 0.1
2015-Jan-12 07:33N 49°18' W 123°12'5 5.4
2015-Jan-12 06:33N 49°18' W 123°03'1 0.9
2015-Jan-12 05:32N 49°18' W 123°02'0 0.0
2015-Jan-12 04:32N 49°18' W 123°02'0 0.0
2015-Jan-12 03:32N 49°18' W 123°02'0 0.0
2015-Jan-12 02:32N 49°18' W 123°02'0 0.0
2015-Jan-12 01:32N 49°18' W 123°02'0 0.0
2015-Jan-12 00:32N 49°18' W 123°02'0 0.0
2015-Jan-11 23:32N 49°18' W 123°02'0 0.0
2015-Jan-11 22:32N 49°18' W 123°02'0 0.0
2015-Jan-11 21:32N 49°18' W 123°02'0 0.0
2015-Jan-11 20:32N 49°18' W 123°02'0 0.0
2015-Jan-11 19:32N 49°18' W 123°02'0 0.0
2015-Jan-11 18:33N 49°18' W 123°02'0 0.0
2015-Jan-11 17:33N 49°18' W 123°02'0 0.0
2015-Jan-11 16:32N 49°18' W 123°02'0 0.0
2015-Jan-11 15:32N 49°18' W 123°02'0 0.0
2015-Jan-11 14:32N 49°18' W 123°02'0 0.0
2015-Jan-11 13:32N 49°18' W 123°02'0 0.0
2015-Jan-11 12:32N 49°18' W 123°02'0 0.0
2015-Jan-11 11:32N 49°18' W 123°02'0 0.0
2015-Jan-11 10:33N 49°18' W 123°02'0 0.0
2015-Jan-11 09:32N 49°18' W 123°02'0 0.0
2015-Jan-11 08:33N 49°18' W 123°02'0 0.0
2015-Jan-11 07:32N 49°18' W 123°02'0 0.0
2015-Jan-11 06:32N 49°18' W 123°02'0 0.0
2015-Jan-11 05:32N 49°18' W 123°02'0 0.0
2015-Jan-11 04:32N 49°18' W 123°02'0 0.0
2015-Jan-11 03:32N 49°18' W 123°02'0 0.0
2015-Jan-11 02:32N 49°18' W 123°02'0 0.0
2015-Jan-11 01:32N 49°18' W 123°02'0 0.0
2015-Jan-11 00:33N 49°18' W 123°02'0 0.0
2015-Jan-10 23:29N 49°18' W 123°02'0 0.0
2015-Jan-10 22:32N 49°18' W 123°02'0 0.0
2015-Jan-10 21:33N 49°18' W 123°02'0 0.0
2015-Jan-10 20:33N 49°18' W 123°02'0 0.0
2015-Jan-10 19:32N 49°18' W 123°02'0 0.0
2015-Jan-10 18:32N 49°18' W 123°02'2 2.2
2015-Jan-10 17:34N 49°18' W 123°05'5 4.7
2015-Jan-10 16:34N 49°18' W 123°12'0 0.1
2015-Jan-10 15:32N 49°18' W 123°12'0 0.0
2015-Jan-10 14:32N 49°18' W 123°12'0 0.0
2015-Jan-10 13:32N 49°18' W 123°12'0 0.0
2015-Jan-10 12:32N 49°18' W 123°12'0 0.0
2015-Jan-10 11:29N 49°18' W 123°12'0 0.1
2015-Jan-10 10:32N 49°18' W 123°12'0 0.0
2015-Jan-10 09:29N 49°18' W 123°12'0 0.0
2015-Jan-10 08:32N 49°18' W 123°12'0 0.0
2015-Jan-10 07:32N 49°18' W 123°12'0 0.0
2015-Jan-10 06:32N 49°18' W 123°12'0 0.0
2015-Jan-10 05:32N 49°18' W 123°12'0 0.0
2015-Jan-10 04:32N 49°18' W 123°12'0 0.0
2015-Jan-10 03:32N 49°18' W 123°12'0 0.0
2015-Jan-10 02:32N 49°18' W 123°12'0 0.0
2015-Jan-10 01:32N 49°18' W 123°12'0 0.0
2015-Jan-10 00:32N 49°18' W 123°12'0 0.1
2015-Jan-09 23:32N 49°18' W 123°12'0 0.1
2015-Jan-09 22:32N 49°18' W 123°13'0 0.1
2015-Jan-09 21:32N 49°18' W 123°13'0 0.0
2015-Jan-09 20:32N 49°18' W 123°13'0 0.0
2015-Jan-09 19:32N 49°18' W 123°13'0 0.0
2015-Jan-09 18:32N 49°18' W 123°13'0 0.0
2015-Jan-09 17:32N 49°18' W 123°13'0 0.0
2015-Jan-09 16:32N 49°18' W 123°13'0 0.1
2015-Jan-09 15:33N 49°18' W 123°13'0 0.1
2015-Jan-09 14:33N 49°18' W 123°12'0 0.1
2015-Jan-09 13:33N 49°18' W 123°12'0 0.1
2015-Jan-09 12:33N 49°18' W 123°12'0 0.2
2015-Jan-09 11:33N 49°18' W 123°12'5 4.7
2015-Jan-09 10:33N 49°18' W 123°05'1 0.7
2015-Jan-09 09:33N 49°18' W 123°04'0 0.0
2015-Jan-09 08:33N 49°18' W 123°04'0 0.0
2015-Jan-09 07:33N 49°18' W 123°04'0 0.0
2015-Jan-09 06:33N 49°18' W 123°04'0 0.0
2015-Jan-09 05:33N 49°18' W 123°04'0 0.0
2015-Jan-09 04:33N 49°18' W 123°04'0 0.0
2015-Jan-09 03:33N 49°18' W 123°04'0 0.0
2015-Jan-09 02:33N 49°18' W 123°04'0 0.0
2015-Jan-09 01:33N 49°18' W 123°04'0 0.0
2015-Jan-09 00:33N 49°18' W 123°04'0 0.0
2015-Jan-08 22:33N 49°18' W 123°04'0 0.0
2015-Jan-08 21:33N 49°18' W 123°04'0 0.0
2015-Jan-08 20:33N 49°18' W 123°04'0 0.5
2015-Jan-08 19:33N 49°18' W 123°05'0 0.2
2015-Jan-08 18:33N 49°18' W 123°05'0 0.1
2015-Jan-08 17:33N 49°18' W 123°05'0 0.0
2015-Jan-08 16:33N 49°18' W 123°05'0 0.0
2015-Jan-08 15:33N 49°18' W 123°05'0 0.2
2015-Jan-08 14:33N 49°18' W 123°05'0 0.0
2015-Jan-08 13:33N 49°18' W 123°05'0 0.2
2015-Jan-08 12:33N 49°18' W 123°05'0 0.1
2015-Jan-08 11:33N 49°18' W 123°05'0 0.2
2015-Jan-08 10:33N 49°18' W 123°05'0 0.0
2015-Jan-08 09:33N 49°18' W 123°05'0 0.0
2015-Jan-08 08:33N 49°18' W 123°05'0 0.0
2015-Jan-08 07:33N 49°18' W 123°05'0 0.0
2015-Jan-08 06:33N 49°18' W 123°05'0 0.0
2015-Jan-08 05:33N 49°18' W 123°05'0 0.0
2015-Jan-08 04:33N 49°18' W 123°05'0 0.0
2015-Jan-08 03:48N 49°18' W 123°05'4 0.5
2015-Jan-07 20:33N 49°19' W 123°11'2 1.7
2015-Jan-07 19:32N 49°17' W 123°12'0 0.0
2015-Jan-07 18:32N 49°17' W 123°12'0 0.0
2015-Jan-07 17:32N 49°17' W 123°12'0 0.0
2015-Jan-07 16:32N 49°17' W 123°12'0 0.0
2015-Jan-07 15:32N 49°17' W 123°12'0 0.0
2015-Jan-07 14:32N 49°17' W 123°12'0 0.0
2015-Jan-07 13:32N 49°17' W 123°12'0 0.1
2015-Jan-07 12:32N 49°17' W 123°12'0 0.0
2015-Jan-07 11:32N 49°17' W 123°12'0 0.0
2015-Jan-07 10:32N 49°17' W 123°12'0 0.0
2015-Jan-07 09:32N 49°17' W 123°12'0 0.0
2015-Jan-07 08:32N 49°17' W 123°12'0 0.1
2015-Jan-07 07:32N 49°17' W 123°12'0 0.1
2015-Jan-07 06:32N 49°17' W 123°12'0 0.0
2015-Jan-07 05:32N 49°17' W 123°12'0 0.0
2015-Jan-07 04:32N 49°17' W 123°12'0 0.0
2015-Jan-07 03:32N 49°17' W 123°12'0 0.0
2015-Jan-07 02:32N 49°17' W 123°12'0 0.0
2015-Jan-07 01:32N 49°17' W 123°12'0 0.0
2015-Jan-07 00:32N 49°17' W 123°12'0 0.1
2015-Jan-06 23:32N 49°17' W 123°12'0 0.0
2015-Jan-06 22:32N 49°17' W 123°12'0 0.0
2015-Jan-06 21:32N 49°17' W 123°12'0 0.2
2015-Jan-06 20:29N 49°17' W 123°12'0 0.0
2015-Jan-06 19:32N 49°17' W 123°12'0 0.0
2015-Jan-06 18:32N 49°17' W 123°12'0 0.0
2015-Jan-06 17:32N 49°17' W 123°12'0 0.0
2015-Jan-06 16:32N 49°17' W 123°12'0 0.0
2015-Jan-06 15:33N 49°17' W 123°12'0 0.0
2015-Jan-06 14:32N 49°17' W 123°12'0 0.0
2015-Jan-06 13:32N 49°17' W 123°12'0 0.0
2015-Jan-06 12:32N 49°17' W 123°12'0 0.0
2015-Jan-06 11:32N 49°17' W 123°12'0 0.1
2015-Jan-06 10:32N 49°17' W 123°12'0 0.0
2015-Jan-06 09:32N 49°17' W 123°12'0 0.0
2015-Jan-06 08:32N 49°17' W 123°12'0 0.0
2015-Jan-06 07:32N 49°17' W 123°12'0 0.0
2015-Jan-06 06:32N 49°17' W 123°12'0 0.1
2015-Jan-06 05:32N 49°17' W 123°12'0 0.0
2015-Jan-06 04:32N 49°17' W 123°12'0 0.0
2015-Jan-06 03:32N 49°17' W 123°12'0 0.0
2015-Jan-06 02:32N 49°17' W 123°12'0 0.1
2015-Jan-06 01:32N 49°17' W 123°12'0 0.2
2015-Jan-06 00:32N 49°17' W 123°12'0 0.1
2015-Jan-05 23:32N 49°17' W 123°12'0 0.0
2015-Jan-05 22:32N 49°17' W 123°12'  
Track history (hours):
 
Tides and Currents Weather Stations Pressure Air Temp Water Temp Dewpoint Dewpoint Depression Visibility Wind Speed Wind Dir Waves Ship Positions

Chris

Last reported at 2015-Jan-15 22:29 UTC. Time now 2015-Jan-29 16:23 UTC.
Position N 48°32' W 126°30'.
Warning: this ship's position is 13 days out of date.

Length 218 m; draft 12.1 m.

Type: Ship. MMSI: 538004472.

Date/timePositionNaut miles runAvg speedWind from/ knotsBaromVisibWave heightAir tempDewpointWater temp
2015-Jan-15 22:29N 48°32' W 126°30'8 8.8
2015-Jan-15 21:32N 48°31' W 126°17'9 8.9
2015-Jan-15 20:33N 48°31' W 126°04'9 8.9
2015-Jan-15 19:33N 48°31' W 125°51'9 8.6
2015-Jan-15 18:33N 48°31' W 125°38'9 8.8
2015-Jan-15 17:33N 48°31' W 125°25'9 9.5
2015-Jan-15 16:33N 48°31' W 125°10'1010.1
2015-Jan-15 15:34N 48°31' W 124°55'1010.0
2015-Jan-15 14:34N 48°30' W 124°40'1111.2
2015-Jan-15 13:33N 48°25' W 124°24'1211.7
2015-Jan-15 12:33N 48°21' W 124°08'1212.2
2015-Jan-15 11:33N 48°17' W 123°51'1211.6
2015-Jan-15 10:33N 48°15' W 123°34'10 9.7
2015-Jan-15 09:33N 48°22' W 123°24'7 7.4
2015-Jan-15 08:33N 48°24' W 123°13'1010.3
2015-Jan-15 07:33N 48°34' W 123°13'9 9.2
2015-Jan-15 06:33N 48°44' W 123°11'8 8.5
2015-Jan-15 05:33N 48°49' W 123°02'1111.2
2015-Jan-15 04:33N 48°57' W 123°13'1110.8
2015-Jan-15 03:33N 49°06' W 123°24'1111.1
2015-Jan-15 02:33N 49°17' W 123°20'9 9.5
2015-Jan-15 01:33N 49°18' W 123°06'1 1.0
2015-Jan-15 00:31N 49°18' W 123°04'0 0.0
2015-Jan-14 23:31N 49°18' W 123°04'0 0.0
2015-Jan-14 22:31N 49°18' W 123°04'0 0.0
2015-Jan-14 21:31N 49°18' W 123°04'0 0.0
2015-Jan-14 20:31N 49°18' W 123°04'0 0.0
2015-Jan-14 19:31N 49°18' W 123°04'0 0.0
2015-Jan-14 18:31N 49°18' W 123°04'0 0.0
2015-Jan-14 17:31N 49°18' W 123°04'0 0.0
2015-Jan-14 16:31N 49°18' W 123°04'0 0.0
2015-Jan-14 15:31N 49°18' W 123°04'0 0.0
2015-Jan-14 14:31N 49°18' W 123°04'0 0.0
2015-Jan-14 13:31N 49°18' W 123°04'0 0.0
2015-Jan-14 12:31N 49°18' W 123°04'0 0.0
2015-Jan-14 11:31N 49°18' W 123°04'0 0.0
2015-Jan-14 10:31N 49°18' W 123°04'0 0.0
2015-Jan-14 09:31N 49°18' W 123°04'0 0.0
2015-Jan-14 08:33N 49°18' W 123°04'3 3.5
2015-Jan-14 07:33N 49°19' W 123°09'2 1.8
2015-Jan-14 06:32N 49°18' W 123°12'0 0.0
2015-Jan-14 05:32N 49°18' W 123°12'0 0.0
2015-Jan-14 04:29N 49°18' W 123°12'0 0.0
2015-Jan-14 03:29N 49°18' W 123°12'0 0.0
2015-Jan-14 02:32N 49°18' W 123°12'0 0.0
2015-Jan-14 01:32N 49°18' W 123°12'0 0.1
2015-Jan-14 00:32N 49°18' W 123°12'0 0.1
2015-Jan-13 23:32N 49°18' W 123°12'0 0.0
2015-Jan-13 22:33N 49°18' W 123°12'0 0.1
2015-Jan-13 21:32N 49°18' W 123°12'0 0.0
2015-Jan-13 20:32N 49°18' W 123°12'0 0.1
2015-Jan-13 19:32N 49°18' W 123°12'0 0.1
2015-Jan-13 18:32N 49°18' W 123°12'0 0.0
2015-Jan-13 17:32N 49°18' W 123°12'0 0.0
2015-Jan-13 16:32N 49°18' W 123°12'0 0.0
2015-Jan-13 15:32N 49°18' W 123°12'0 0.1
2015-Jan-13 14:32N 49°18' W 123°12'0 0.1
2015-Jan-13 13:32N 49°18' W 123°12'0 0.0
2015-Jan-13 12:32N 49°18' W 123°12'0 0.0
2015-Jan-13 11:32N 49°18' W 123°12'0 0.0
2015-Jan-13 10:32N 49°18' W 123°12'0 0.0
2015-Jan-13 09:32N 49°18' W 123°12'0 0.0
2015-Jan-13 08:32N 49°18' W 123°12'0 0.1
2015-Jan-13 07:32N 49°18' W 123°12'0 0.1
2015-Jan-13 06:32N 49°18' W 123°12'0 0.0
2015-Jan-13 05:32N 49°18' W 123°12'0 0.0
2015-Jan-13 04:32N 49°18' W 123°12'0 0.0
2015-Jan-13 03:32N 49°18' W 123°12'0 0.1
2015-Jan-13 02:32N 49°18' W 123°12'0 0.1
2015-Jan-13 01:32N 49°18' W 123°12'0 0.1
2015-Jan-13 00:32N 49°18' W 123°12'0 0.0
2015-Jan-12 23:32N 49°18' W 123°12'0 0.0
2015-Jan-12 22:32N 49°18' W 123°12'0 0.0
2015-Jan-12 21:32N 49°18' W 123°12'0 0.0
2015-Jan-12 20:32N 49°18' W 123°12'0 0.0
2015-Jan-12 19:32N 49°18' W 123°12'0 0.0
2015-Jan-12 18:29N 49°18' W 123°12'0 0.1
2015-Jan-12 17:32N 49°18' W 123°12'0 0.0
2015-Jan-12 16:32N 49°18' W 123°12'0 0.0
2015-Jan-12 15:32N 49°18' W 123°12'0 0.0
2015-Jan-12 14:33N 49°18' W 123°12'0 0.0
2015-Jan-12 13:32N 49°18' W 123°12'0 0.0
2015-Jan-12 12:32N 49°18' W 123°12'0 0.0
2015-Jan-12 11:32N 49°18' W 123°12'0 0.1
2015-Jan-12 10:32N 49°18' W 123°12'0 0.0
2015-Jan-12 09:32N 49°18' W 123°12'0 0.0
2015-Jan-12 08:32N 49°18' W 123°12'0 0.1
2015-Jan-12 07:33N 49°18' W 123°12'5 5.4
2015-Jan-12 06:33N 49°18' W 123°03'1 0.9
2015-Jan-12 05:32N 49°18' W 123°02'0 0.0
2015-Jan-12 04:32N 49°18' W 123°02'0 0.0
2015-Jan-12 03:32N 49°18' W 123°02'0 0.0
2015-Jan-12 02:32N 49°18' W 123°02'0 0.0
2015-Jan-12 01:32N 49°18' W 123°02'0 0.0
2015-Jan-12 00:32N 49°18' W 123°02'0 0.0
2015-Jan-11 23:32N 49°18' W 123°02'0 0.0
2015-Jan-11 22:32N 49°18' W 123°02'0 0.0
2015-Jan-11 21:32N 49°18' W 123°02'0 0.0
2015-Jan-11 20:32N 49°18' W 123°02'0 0.0
2015-Jan-11 19:32N 49°18' W 123°02'0 0.0
2015-Jan-11 18:33N 49°18' W 123°02'0 0.0
2015-Jan-11 17:33N 49°18' W 123°02'0 0.0
2015-Jan-11 16:32N 49°18' W 123°02'0 0.0
2015-Jan-11 15:32N 49°18' W 123°02'0 0.0
2015-Jan-11 14:32N 49°18' W 123°02'0 0.0
2015-Jan-11 13:32N 49°18' W 123°02'0 0.0
2015-Jan-11 12:32N 49°18' W 123°02'0 0.0
2015-Jan-11 11:32N 49°18' W 123°02'0 0.0
2015-Jan-11 10:33N 49°18' W 123°02'0 0.0
2015-Jan-11 09:32N 49°18' W 123°02'0 0.0
2015-Jan-11 08:33N 49°18' W 123°02'0 0.0
2015-Jan-11 07:32N 49°18' W 123°02'0 0.0
2015-Jan-11 06:32N 49°18' W 123°02'0 0.0
2015-Jan-11 05:32N 49°18' W 123°02'0 0.0
2015-Jan-11 04:32N 49°18' W 123°02'0 0.0
2015-Jan-11 03:32N 49°18' W 123°02'0 0.0
2015-Jan-11 02:32N 49°18' W 123°02'0 0.0
2015-Jan-11 01:32N 49°18' W 123°02'0 0.0
2015-Jan-11 00:33N 49°18' W 123°02'0 0.0
2015-Jan-10 23:29N 49°18' W 123°02'0 0.0
2015-Jan-10 22:32N 49°18' W 123°02'0 0.0
2015-Jan-10 21:33N 49°18' W 123°02'0 0.0
2015-Jan-10 20:33N 49°18' W 123°02'0 0.0
2015-Jan-10 19:32N 49°18' W 123°02'0 0.0
2015-Jan-10 18:32N 49°18' W 123°02'2 2.2
2015-Jan-10 17:34N 49°18' W 123°05'5 4.7
2015-Jan-10 16:34N 49°18' W 123°12'0 0.1
2015-Jan-10 15:32N 49°18' W 123°12'0 0.0
2015-Jan-10 14:32N 49°18' W 123°12'0 0.0
2015-Jan-10 13:32N 49°18' W 123°12'0 0.0
2015-Jan-10 12:32N 49°18' W 123°12'0 0.0
2015-Jan-10 11:29N 49°18' W 123°12'0 0.1
2015-Jan-10 10:32N 49°18' W 123°12'0 0.0
2015-Jan-10 09:29N 49°18' W 123°12'0 0.0
2015-Jan-10 08:32N 49°18' W 123°12'0 0.0
2015-Jan-10 07:32N 49°18' W 123°12'0 0.0
2015-Jan-10 06:32N 49°18' W 123°12'0 0.0
2015-Jan-10 05:32N 49°18' W 123°12'0 0.0
2015-Jan-10 04:32N 49°18' W 123°12'0 0.0
2015-Jan-10 03:32N 49°18' W 123°12'0 0.0
2015-Jan-10 02:32N 49°18' W 123°12'0 0.0
2015-Jan-10 01:32N 49°18' W 123°12'0 0.0
2015-Jan-10 00:32N 49°18' W 123°12'0 0.1
2015-Jan-09 23:32N 49°18' W 123°12'0 0.1
2015-Jan-09 22:32N 49°18' W 123°13'0 0.1
2015-Jan-09 21:32N 49°18' W 123°13'0 0.0
2015-Jan-09 20:32N 49°18' W 123°13'0 0.0
2015-Jan-09 19:32N 49°18' W 123°13'0 0.0
2015-Jan-09 18:32N 49°18' W 123°13'0 0.0
2015-Jan-09 17:32N 49°18' W 123°13'0 0.0
2015-Jan-09 16:32N 49°18' W 123°13'0 0.1
2015-Jan-09 15:33N 49°18' W 123°13'0 0.1
2015-Jan-09 14:33N 49°18' W 123°12'0 0.1
2015-Jan-09 13:33N 49°18' W 123°12'0 0.1
2015-Jan-09 12:33N 49°18' W 123°12'0 0.2
2015-Jan-09 11:33N 49°18' W 123°12'5 4.7
2015-Jan-09 10:33N 49°18' W 123°05'1 0.7
2015-Jan-09 09:33N 49°18' W 123°04'0 0.0
2015-Jan-09 08:33N 49°18' W 123°04'0 0.0
2015-Jan-09 07:33N 49°18' W 123°04'0 0.0
2015-Jan-09 06:33N 49°18' W 123°04'0 0.0
2015-Jan-09 05:33N 49°18' W 123°04'0 0.0
2015-Jan-09 04:33N 49°18' W 123°04'0 0.0
2015-Jan-09 03:33N 49°18' W 123°04'0 0.0
2015-Jan-09 02:33N 49°18' W 123°04'0 0.0
2015-Jan-09 01:33N 49°18' W 123°04'0 0.0
2015-Jan-09 00:33N 49°18' W 123°04'0 0.0
2015-Jan-08 22:33N 49°18' W 123°04'0 0.0
2015-Jan-08 21:33N 49°18' W 123°04'0 0.0
2015-Jan-08 20:33N 49°18' W 123°04'0 0.5
2015-Jan-08 19:33N 49°18' W 123°05'0 0.2
2015-Jan-08 18:33N 49°18' W 123°05'0 0.1
2015-Jan-08 17:33N 49°18' W 123°05'0 0.0
2015-Jan-08 16:33N 49°18' W 123°05'0 0.0
2015-Jan-08 15:33N 49°18' W 123°05'0 0.2
2015-Jan-08 14:33N 49°18' W 123°05'0 0.0
2015-Jan-08 13:33N 49°18' W 123°05'0 0.2
2015-Jan-08 12:33N 49°18' W 123°05'0 0.1
2015-Jan-08 11:33N 49°18' W 123°05'0 0.2
2015-Jan-08 10:33N 49°18' W 123°05'0 0.0
2015-Jan-08 09:33N 49°18' W 123°05'0 0.0
2015-Jan-08 08:33N 49°18' W 123°05'0 0.0
2015-Jan-08 07:33N 49°18' W 123°05'0 0.0
2015-Jan-08 06:33N 49°18' W 123°05'0 0.0
2015-Jan-08 05:33N 49°18' W 123°05'0 0.0
2015-Jan-08 04:33N 49°18' W 123°05'0 0.0
2015-Jan-08 03:48N 49°18' W 123°05'4 0.5
2015-Jan-07 20:33N 49°19' W 123°11'2 1.7
2015-Jan-07 19:32N 49°17' W 123°12'0 0.0
2015-Jan-07 18:32N 49°17' W 123°12'0 0.0
2015-Jan-07 17:32N 49°17' W 123°12'0 0.0
2015-Jan-07 16:32N 49°17' W 123°12'0 0.0
2015-Jan-07 15:32N 49°17' W 123°12'0 0.0
2015-Jan-07 14:32N 49°17' W 123°12'0 0.0
2015-Jan-07 13:32N 49°17' W 123°12'0 0.1
2015-Jan-07 12:32N 49°17' W 123°12'0 0.0
2015-Jan-07 11:32N 49°17' W 123°12'0 0.0
2015-Jan-07 10:32N 49°17' W 123°12'0 0.0
2015-Jan-07 09:32N 49°17' W 123°12'0 0.0
2015-Jan-07 08:32N 49°17' W 123°12'0 0.1
2015-Jan-07 07:32N 49°17' W 123°12'0 0.1
2015-Jan-07 06:32N 49°17' W 123°12'0 0.0
2015-Jan-07 05:32N 49°17' W 123°12'0 0.0
2015-Jan-07 04:32N 49°17' W 123°12'0 0.0
2015-Jan-07 03:32N 49°17' W 123°12'0 0.0
2015-Jan-07 02:32N 49°17' W 123°12'0 0.0
2015-Jan-07 01:32N 49°17' W 123°12'0 0.0
2015-Jan-07 00:32N 49°17' W 123°12'0 0.1
2015-Jan-06 23:32N 49°17' W 123°12'0 0.0
2015-Jan-06 22:32N 49°17' W 123°12'0 0.0
2015-Jan-06 21:32N 49°17' W 123°12'0 0.2
2015-Jan-06 20:29N 49°17' W 123°12'0 0.0
2015-Jan-06 19:32N 49°17' W 123°12'0 0.0
2015-Jan-06 18:32N 49°17' W 123°12'0 0.0
2015-Jan-06 17:32N 49°17' W 123°12'0 0.0
2015-Jan-06 16:32N 49°17' W 123°12'0 0.0
2015-Jan-06 15:33N 49°17' W 123°12'0 0.0
2015-Jan-06 14:32N 49°17' W 123°12'0 0.0
2015-Jan-06 13:32N 49°17' W 123°12'0 0.0
2015-Jan-06 12:32N 49°17' W 123°12'0 0.0
2015-Jan-06 11:32N 49°17' W 123°12'0 0.1
2015-Jan-06 10:32N 49°17' W 123°12'0 0.0
2015-Jan-06 09:32N 49°17' W 123°12'0 0.0
2015-Jan-06 08:32N 49°17' W 123°12'0 0.0
2015-Jan-06 07:32N 49°17' W 123°12'0 0.0
2015-Jan-06 06:32N 49°17' W 123°12'0 0.1
2015-Jan-06 05:32N 49°17' W 123°12'0 0.0
2015-Jan-06 04:32N 49°17' W 123°12'0 0.0
2015-Jan-06 03:32N 49°17' W 123°12'0 0.0
2015-Jan-06 02:32N 49°17' W 123°12'0 0.1
2015-Jan-06 01:32N 49°17' W 123°12'0 0.2
2015-Jan-06 00:32N 49°17' W 123°12'0 0.1
2015-Jan-05 23:32N 49°17' W 123°12'0 0.0
2015-Jan-05 22:32N 49°17' W 123°12'  

Dump ship's entire track history